Surface/Precipitation History
01/19/2019 23:08  to  1/20/2019 23:08
Change End Date:
To complete the export process:
1) Select all of the data below
2) Copy the data to the clipboard
3) Open a word processor such as Notepad
4) Paste the data into the word processor
5) Save the file

Date/Time (MST), SfStatus, SfTemp, PvtTemp, SubTemp, FreezeTemp, ChemFactor, ChemPercent, WaterDepth, WaterDepthIceThickness, IcePercent, Conductivity, Salinity, FrictionIndex, PrecipType, PrecipIntensity, Accumulation, PrecipRate
01/20/2019 23:03, Wet, 33.6, , 33, 32, 10, 0, 0, , 0, 0, 4, , None, None, ,  
01/20/2019 22:53, Wet, 33.4, , 33, 32, 10, 0, 0.1, , 0, 0, 4, , None, None, ,  
01/20/2019 22:43, Wet, 33.4, , 33, 32, 10, 0, 0.1, , 0, 0, 3, , None, None, ,  
01/20/2019 22:33, Wet, 33.4, , 33, 32, 10, 0, 0.1, , 0, 0, 3, , None, None, ,  
01/20/2019 22:23, Wet, 33.8, , 33, 32, 10, 0, 0.1, , 0, 0, 3, , None, None, ,  
01/20/2019 22:13, Wet, 33.6, , 33, 32, 10, 0, 0.1, , 0, 0, 3, , None, None, ,  
01/20/2019 22:12, Wet, 33.4, , 33, 32, 10, 0, 0.1, , 0, 0, 3, , None, None, ,  
01/20/2019 22:03, Wet, 33.4, , 33, 32, 10, 0, 0.1, , 0, 0, 3, , None, None, ,  
01/20/2019 21:53, Wet, 33.6, , 33, 32, 10, 0, 0.1, , 0, 0, 3, , None, None, ,  
01/20/2019 21:43, Wet, 34, , 33, 32, 10, 0, 0.1, , 0, 0, 3, , None, None, ,  
01/20/2019 21:33, Wet, 34.2, , 34, 32, 10, 0, 0.1, , 0, 0, 2, , None, None, ,  
01/20/2019 21:27, Wet, 34.3, , 34, 32, 10, 0, 0.1, , 0, 0, 2, , None, None, ,  
01/20/2019 21:23, Wet, 34.5, , 34, 32, 10, 0, 0.1, , 0, 0, 2, , None, None, ,  
01/20/2019 21:13, Wet, 34.5, , 34, 32, 10, 0, 0.1, , 0, 0, 2, , None, None, ,  
01/20/2019 21:12, Wet, 34.5, , 34, 32, 10, 0, 0.1, , 0, 0, 2, , None, None, ,  
01/20/2019 21:03, Wet, 34.7, , 34, 32, 10, 0, 0.1, , 0, 0, 2, , None, None, ,  
01/20/2019 20:57, Wet, 34.7, , 34, 32, 10, 0, 0.1, , 0, 0, 2, , None, None, ,  
01/20/2019 20:52, Wet, 34.5, , 34, 32, 10, 0, 0.1, , 0, 0, 2, , None, None, ,  
01/20/2019 20:42, Wet, 34.5, , 34, 32, 10, 0, 0.1, , 0, 0, 2, , None, None, ,  
01/20/2019 20:42, Wet, 34.5, , 34, 32, 10, 0, 0.1, , 0, 0, 2, , None, None, ,  
01/20/2019 20:32, Wet, 34.5, , 34, 32, 10, 0, 0.1, , 0, 0, 2, , None, None, ,  
01/20/2019 20:27, Wet, 34.5, , 34, 32, 10, 0, 0.1, , 0, 0, 2, , None, None, ,  
01/20/2019 20:22, Wet, 34.7, , 34, 32, 10, 0, 0.1, , 0, 0, 2, , None, None, ,  
01/20/2019 20:12, Wet, 34.7, , 34, 32, 10, 0, 0.1, , 0, 0, 2, , None, None, ,  
01/20/2019 20:12, Wet, 34.7, , 34, 32, 10, 0, 0.1, , 0, 0, 2, , None, None, ,  
01/20/2019 20:02, Wet, 34.7, , 34, 32, 10, 0, 0.2, , 0, 0, 1, , None, None, ,  
01/20/2019 19:57, Wet, 34.7, , 34, 32, 10, 0, 0.2, , 0, 0, 1, , None, None, ,  
01/20/2019 19:52, Wet, 34.9, , 34, 32, 10, 0, 0.2, , 0, 0, 1, , None, None, ,  
01/20/2019 19:42, Wet, 35.2, , 34, 32, 5, 0, 0.2, , 0, 0, 1, , None, None, ,  
01/20/2019 19:42, Wet, 35.2, , 34, 32, 5, 0, 0.2, , 0, 0, 1, , None, None, ,  
01/20/2019 19:32, Wet, 35.4, , 34, 32, 5, 0, 0.2, , 0, 0, 1, , None, None, ,  
01/20/2019 19:22, Wet, 35.2, , 34, 32, 10, 0, 0.2, , 0, 0, 1, , None, None, ,  
01/20/2019 19:12, Wet, 35.4, , 34, 32, 10, 0, 0.1, , 0, 0, 2, , None, None, ,  
01/20/2019 19:12, Wet, 35.4, , 34, 32, 10, 0, 0.1, , 0, 0, 2, , None, None, ,  
01/20/2019 19:02, Wet, 35.2, , 34, 32, 10, 0, 0.1, , 0, 0, 2, , None, None, ,  
01/20/2019 18:58, Wet, 35.4, , 34, 32, 10, 0, 0.1, , 0, 0, 2, , None, None, ,  
01/20/2019 18:52, Wet, 35.1, , 35, 32, 10, 0, 0.1, , 0, 0, 2, , None, None, ,  
01/20/2019 18:42, Wet, 35.2, , 35, 32, 10, 0, 0.2, , 0, 0, 1, , None, None, ,  
01/20/2019 18:42, Wet, 35.2, , 35, 32, 10, 0, 0.2, , 0, 0, 1, , None, None, ,  
01/20/2019 18:32, Wet, 35.8, , 35, 32, 10, 0, 0.2, , 0, 0, 1, , None, None, ,  
01/20/2019 18:22, Wet, 35.8, , 35, 32, 5, 0, 0.2, , 0, 0, 1, , None, None, ,  
01/20/2019 18:12, Wet, 35.8, , 35, 32, 5, 0, 0.2, , 0, 0, 1, , None, None, ,  
01/20/2019 18:02, Wet, 35.8, , 35, 32, 5, 0, 0.2, , 0, 0, 1, , None, None, ,  
01/20/2019 17:57, Wet, 36, , 35, 32, 5, 0, 0.2, , 0, 0, 1, , None, None, ,  
01/20/2019 17:52, Wet, 36.1, , 35, 32, 5, 0, 0.2, , 0, 0, 1, , None, None, ,  
01/20/2019 17:43, Wet, 36.3, , 35, 32, 5, 0, 0.2, , 0, 0, 1, , None, None, ,  
01/20/2019 17:42, Wet, 36.5, , 35, 32, 5, 0, 0.2, , 0, 0, 1, , None, None, ,  
01/20/2019 17:32, Wet, 36.5, , 35, 32, 5, 0, 0.2, , 0, 0, 1, , None, None, ,  
01/20/2019 17:28, Wet, 36.5, , 35, 32, 5, 0, 0.2, , 0, 0, 1, , None, None, ,  
01/20/2019 17:21, Wet, 36.7, , 35, 32, 5, 0, 0.2, , 0, 0, 1, , None, None, ,  
01/20/2019 17:12, Wet, 36.7, , 35, 32, 5, 0, 0.2, , 0, 0, 1, , None, None, ,  
01/20/2019 17:11, Wet, 36.7, , 35, 32, 5, 0, 0.2, , 0, 0, 1, , None, None, ,  
01/20/2019 17:01, Wet, 36.9, , 35, 32, 5, 0, 0.2, , 0, 0, 1, , None, None, ,  
01/20/2019 16:57, Wet, 36.9, , 35, 32, 5, 0, 0.2, , 0, 0, 1, , None, None, ,  
01/20/2019 16:51, Wet, 36.9, , 35, 32, 5, 0, 0.2, , 0, 0, 1, , None, None, ,  
01/20/2019 16:42, Wet, 37, , 35, 32, 5, 0, 0.2, , 0, 0, 1, , None, None, ,  
01/20/2019 16:41, Wet, 37, , 35, 32, 5, 0, 0.2, , 0, 0, 1, , None, None, ,  
01/20/2019 16:31, Wet, 37.4, , 35, 32, 5, 0, 0.2, , 0, 0, 1, , None, None, ,  
01/20/2019 16:27, Wet, 37.6, , 35, 32, 5, 0, 0.2, , 0, 0, 1, , None, None, ,  
01/20/2019 16:21, Wet, 37.8, , 35, 32, 5, 0, 0.2, , 0, 0, 1, , None, None, ,  
01/20/2019 16:12, Wet, 37.8, , 35, 32, 5, 0, 0.2, , 0, 0, 1, , None, None, ,  
01/20/2019 16:11, Wet, 37.8, , 35, 32, 5, 0, 0.2, , 0, 0, 1, , None, None, ,  
01/20/2019 16:01, Wet, 37.8, , 35, 32, 5, 0, 0.2, , 0, 0, 1, , None, None, ,  
01/20/2019 15:57, Wet, 37.9, , 35, 32, 10, 0, 0.2, , 0, 0, 1, , None, None, ,  
01/20/2019 15:51, Wet, 38.1, , 35, 32, 10, 0, 0.2, , 0, 0, 1, , None, None, ,  
01/20/2019 15:42, Wet, 38.3, , 35, 32, 10, 0, 0.2, , 0, 0, 1, , None, None, ,  
01/20/2019 15:41, Wet, 38.5, , 35, 32, 10, 0, 0.2, , 0, 0, 1, , None, None, ,  
01/20/2019 15:31, Wet, 38.5, , 35, 32, 10, 0, 0.2, , 0, 0, 1, , None, None, ,  
01/20/2019 15:27, Wet, 38.5, , 35, 32, 10, 0, 0.2, , 0, 0, 1, , None, None, ,  
01/20/2019 15:21, Wet, 38.3, , 35, 32, 10, 0, 0.2, , 0, 0, 1, , None, None, ,  
01/20/2019 15:12, Wet, 38.1, , 35, 32, 20, 0, 0.1, , 0, 0, 3, , None, None, ,  
01/20/2019 15:11, Wet, 38.1, , 35, 32, 25, 0, 0.1, , 0, 0, 3, , None, None, ,  
01/20/2019 15:01, Wet, 37.2, , 35, 32, 70, 0, 0.1, , 0, 0, 10, , None, None, ,  
01/20/2019 14:57, Wet, 36.9, , 35, 32, 85, 0, 0.1, , 0, 0, 12, , None, None, ,  
01/20/2019 14:51, Wet, 36.9, , 35, 32, 90, 0, 0.1, , 0, 0, 15, , None, None, ,  
01/20/2019 14:42, Wet, 36.7, , 35, 32, 95, 0, 0.1, , 0, 0, 18, , None, None, ,  
01/20/2019 14:41, Wet, 36.7, , 35, 32, 95, 0, 0.1, , 0, 0, 18, , None, None, ,  
01/20/2019 14:31, Wet, 36.7, , 35, 32, 95, 0, 0.1, , 0, 0, 22, , None, None, ,  
01/20/2019 14:21, Wet, 36.7, , 35, 32, 95, 0, 0, , 0, 0, 31, , None, None, ,  
01/20/2019 14:12, Wet, 36.7, , 34, 32, 95, 0, 0, , 0, 0, 46, , None, None, ,  
01/20/2019 14:11, Wet, 36.5, , 34, 32, 95, 0, 0, , 0, 0, 45, , None, None, ,  
01/20/2019 14:01, Wet, 36.3, , 34, 32, 95, 0, 0, , 0, 1, 82, , None, None, ,  
01/20/2019 13:57, Wet, 36.3, , 34, 32, 95, 0, 0, , 0, 1, 88, , None, None, ,  
01/20/2019 13:51, Wet, 36.1, , 34, 32, 95, 0, 0, , 0, 1, 114, , None, None, ,  
01/20/2019 13:42, Wet, 36.1, , 34, 32, 95, 1, 0, , 0, 2, 163, , None, None, ,  
01/20/2019 13:41, Wet, 36.1, , 34, 32, 95, 1, 0, , 0, 2, 169, , None, None, ,  
01/20/2019 13:31, Wet, 36.3, , 34, 32, 95, 1, 0, , 0, 2, 214, , None, None, ,  
01/20/2019 13:27, Wet, 36.3, , 34, 32, 95, 1, 0, , 0, 3, 238, , None, None, ,  
01/20/2019 13:20, Wet, 36.3, , 34, 32, 95, 1, 0, , 0, 3, 243, , None, None, ,  
01/20/2019 13:12, Wet, 36.1, , 34, 32, 95, 1, 0, , 0, 3, 315, , None, None, ,  
01/20/2019 13:10, Wet, 36.1, , 34, 32, 95, 1, 0, , 0, 3, 315, , None, None, ,  
01/20/2019 13:00, Wet, 36, , 34, 32, 95, 1, 0, , 0, 4, 412, , None, None, ,  
01/20/2019 12:57, Wet, 36, , 34, 32, 95, 1, 0, , 0, 4, 409, , None, None, ,  
01/20/2019 12:50, Wet, 36, , 34, 32, 95, 1, 0, , 0, 4, 412, , None, None, ,  
01/20/2019 12:42, Wet, 35.8, , 34, 32, 95, 2, 0, , 0, 5, 518, , None, None, ,  
01/20/2019 12:40, Wet, 35.8, , 34, 32, 95, 2, 0, , 0, 5, 499, , None, None, ,  
01/20/2019 12:30, Wet, 35.8, , 33, 32, 95, 2, 0, , 0, 5, 473, , None, None, ,  
01/20/2019 12:27, Wet, 35.8, , 33, 31, 95, 2, 0, , 0, 7, 664, , None, None, ,  
01/20/2019 12:20, Wet, 35.8, , 33, 32, 95, 1, 0, , 0, 3, 282, , None, None, ,  
01/20/2019 12:12, Wet, 35.6, , 33, 32, 95, 2, 0, , 0, 5, 513, , None, None, ,  
01/20/2019 12:10, Wet, 35.6, , 33, 32, 95, 2, 0, , 0, 5, 454, , None, None, ,  
01/20/2019 12:00, Wet, 35.2, , 33, 31, 95, 2, 0, , 0, 7, 671, , None, None, ,  
01/20/2019 11:57, Wet, 35.1, , 33, 31, 95, 2, 0, , 0, 7, 643, , None, None, ,  
01/20/2019 11:50, Wet, 34.7, , 33, 32, 95, 1, 0, , 0, 4, 424, , None, None, ,  
01/20/2019 11:42, Wet, 34.7, , 33, 31, 95, 2, 0, , 0, 7, 679, , None, None, ,  
01/20/2019 11:40, Wet, 34.7, , 32, 31, 95, 2, 0, , 0, 7, 673, , None, None, ,  
01/20/2019 11:30, Wet, 34.5, , 32, 31, 95, 2, 0, , 0, 6, 577, , None, None, ,  
01/20/2019 11:27, Wet, 34.3, , 32, 31, 95, 2, 0, , 0, 6, 609, , None, None, ,  
01/20/2019 11:20, Wet, 34.2, , 32, 31, 95, 2, 0, , 0, 6, 632, , None, None, ,  
01/20/2019 11:12, Wet, 33.1, , 31, 31, 95, 2, 0, , 0, 6, 619, , None, None, ,  
01/20/2019 11:10, Wet, 32.9, , 31, 31, 95, 2, 0, , 0, 6, 623, , None, None, ,  
01/20/2019 11:00, Wet, 32.2, , 31, 31, 95, 2, 0, , 0, 6, 624, , None, None, ,  
01/20/2019 10:57, Wet, 32.2, , 31, 31, 95, 2, 0, , 0, 6, 636, , None, None, ,  
01/20/2019 10:50, Wet, 32.2, , 31, 31, 95, 2, 0.1, , 0, 6, 647, , None, None, ,  
01/20/2019 10:42, Wet, 32.2, , 31, 31, 95, 2, 0.1, , 0, 7, 688, , None, None, ,  
01/20/2019 10:40, Wet, 32.2, , 31, 31, 95, 2, 0.1, , 0, 7, 686, , None, None, ,  
01/20/2019 10:30, Chemically Wet, 31.8, , 31, 32, 95, 2, 0.1, , 0, 5, 520, , None, None, ,  
01/20/2019 10:27, Chemically Wet, 31.8, , 31, 32, 95, 1, 0.1, , 0, 3, 274, , None, None, ,  
01/20/2019 10:20, Ice Warning, 31.6, , 31, 32, 95, 0, , , 86, 1, 126, , None, None, ,  
01/20/2019 10:12, Ice Warning, 31.5, , 31, 32, 95, 0, , , 94, 1, 73, , None, None, ,  
01/20/2019 10:10, Ice Warning, 31.3, , 31, 32, 95, 0, , , 98, 0, 36, , None, None, ,  
01/20/2019 10:00, Ice Warning, 31.1, , 31, 32, 95, 0, , , 96, 1, 70, , None, None, ,  
01/20/2019 09:57, Ice Warning, 31.1, , 31, 32, 95, 0, , , 96, 1, 69, , None, None, ,  
01/20/2019 09:50, Ice Warning, 31.1, , 31, 32, 95, 0, , , 97, 1, 64, , None, None, ,  
01/20/2019 09:42, Ice Warning, 31.1, , 31, 32, 95, 0, , , 97, 1, 69, , None, None, ,  
01/20/2019 09:40, Ice Warning, 31.1, , 31, 32, 95, 0, , , 97, 1, 72, , None, None, ,  
01/20/2019 09:30, Ice Warning, 31.1, , 31, 32, 95, 0, , , 97, 1, 70, , None, None, ,  
01/20/2019 09:27, Ice Warning, 31.1, , 31, 32, 95, 0, , , 97, 1, 70, , None, None, ,  
01/20/2019 09:20, Ice Warning, 30.9, , 31, 32, 95, 0, , , 97, 1, 71, , None, None, ,  
01/20/2019 09:12, Ice Warning, 30.9, , 31, 32, 95, 0, , , 97, 1, 70, , None, None, ,  
01/20/2019 09:09, Ice Warning, 30.9, , 31, 32, 95, 0, , , 97, 1, 70, , None, None, ,  
01/20/2019 08:59, Ice Warning, 30.7, , 31, 32, 95, 0, , , 98, 1, 71, , None, None, ,  
01/20/2019 08:57, Ice Warning, 30.7, , 31, 32, 95, 0, , , 98, 1, 71, , None, None, ,  
01/20/2019 08:49, Ice Warning, 30.7, , 31, 32, 95, 0, , , 98, 1, 71, , None, None, ,  
01/20/2019 08:42, Ice Warning, 30.7, , 30, 32, 95, 0, , , 98, 1, 71, , Yes, , ,  
01/20/2019 08:39, Ice Warning, 30.6, , 30, 32, 95, 0, , , 98, 1, 72, , Yes, , ,  
01/20/2019 08:29, Ice Warning, 30.6, , 30, 32, 95, 0, , , 98, 1, 72, , Yes, , ,  
01/20/2019 08:27, Ice Warning, 30.6, , 30, 32, 95, 0, , , 98, 1, 72, , Yes, , ,  
01/20/2019 08:19, Ice Warning, 30.4, , 30, 32, 95, 0, , , 98, 1, 74, , Yes, , ,  
01/20/2019 08:12, Ice Warning, 30.4, , 30, 32, 95, 0, , , 98, 1, 75, , Yes, , ,  
01/20/2019 08:09, Ice Warning, 30.4, , 30, 32, 95, 0, , , 98, 1, 75, , Yes, , ,  
01/20/2019 07:59, Ice Warning, 30.2, , 30, 32, 95, 0, , , 98, 1, 78, , None, None, ,  
01/20/2019 07:57, Ice Warning, 30.2, , 30, 32, 95, 0, , , 98, 1, 78, , None, None, ,  
01/20/2019 07:49, Ice Warning, 30, , 30, 32, 95, 0, , , 98, 1, 81, , None, None, ,  
01/20/2019 07:42, Ice Warning, 29.8, , 30, 32, 95, 0, , , 98, 1, 85, , None, None, ,  
01/20/2019 07:39, Ice Warning, 29.8, , 30, 32, 95, 0, , , 98, 1, 86, , None, None, ,  
01/20/2019 07:29, Ice Warning, 29.8, , 30, 32, 95, 0, , , 98, 1, 86, , None, None, ,  
01/20/2019 07:27, Ice Warning, 29.7, , 30, 32, 95, 0, , , 98, 1, 87, , None, None, ,  
01/20/2019 07:19, Ice Warning, 29.7, , 30, 32, 95, 0, , , 98, 1, 86, , None, None, ,  
01/20/2019 07:12, Ice Warning, 29.7, , 30, 32, 95, 0, , , 98, 1, 85, , None, None, ,  
01/20/2019 07:09, Ice Warning, 29.5, , 30, 32, 95, 0, , , 98, 1, 86, , None, None, ,  
01/20/2019 06:59, Ice Warning, 29.5, , 30, 32, 95, 0, , , 98, 1, 85, , None, None, ,  
01/20/2019 06:57, Ice Warning, 29.5, , 30, 32, 95, 0, , , 98, 1, 86, , None, None, ,  
01/20/2019 06:49, Ice Warning, 29.3, , 30, 32, 95, 0, , , 98, 1, 86, , None, None, ,  
01/20/2019 06:42, Ice Warning, 29.3, , 30, 32, 95, 0, , , 98, 1, 86, , None, None, ,  
01/20/2019 06:39, Ice Warning, 29.3, , 30, 32, 95, 0, , , 98, 1, 86, , None, None, ,  
01/20/2019 06:29, Ice Warning, 29.3, , 30, 32, 95, 0, , , 98, 1, 85, , None, None, ,  
01/20/2019 06:27, Ice Warning, 29.3, , 30, 32, 95, 0, , , 98, 1, 85, , None, None, ,  
01/20/2019 06:19, Ice Warning, 29.1, , 30, 32, 95, 0, , , 99, 1, 85, , None, None, ,  
01/20/2019 06:12, Ice Warning, 29.1, , 30, 32, 95, 0, , , 99, 1, 85, , None, None, ,  
01/20/2019 06:09, Ice Warning, 29.1, , 30, 32, 95, 0, , , 99, 1, 84, , None, None, ,  
01/20/2019 05:59, Ice Warning, 29.3, , 31, 32, 95, 0, , , 99, 1, 82, , None, None, ,  
01/20/2019 05:57, Ice Warning, 29.3, , 31, 32, 95, 0, , , 99, 1, 82, , None, None, ,  
01/20/2019 05:49, Ice Warning, 29.5, , 31, 32, 95, 0, , , 98, 1, 81, , None, None, ,  
01/20/2019 05:42, Ice Warning, 29.7, , 31, 32, 95, 0, , , 98, 1, 79, , None, None, ,  
01/20/2019 05:39, Ice Warning, 29.8, , 31, 32, 95, 0, , , 98, 1, 78, , None, None, ,  
01/20/2019 05:28, Ice Warning, 29.8, , 31, 32, 95, 0, , , 98, 1, 79, , None, None, ,  
01/20/2019 05:27, Ice Warning, 29.8, , 31, 32, 95, 0, , , 98, 1, 78, , None, None, ,  
01/20/2019 05:18, Ice Warning, 29.8, , 31, 32, 95, 0, , , 98, 1, 78, , None, None, ,  
01/20/2019 05:12, Ice Warning, 29.8, , 31, 32, 95, 0, , , 98, 1, 78, , None, None, ,  
01/20/2019 05:08, Ice Warning, 29.8, , 31, 32, 95, 0, , , 98, 1, 78, , None, None, ,  
01/20/2019 04:58, Ice Warning, 29.8, , 31, 32, 95, 0, , , 98, 1, 77, , None, None, ,  
01/20/2019 04:57, Ice Warning, 29.8, , 31, 32, 95, 0, , , 98, 1, 77, , None, None, ,  
01/20/2019 04:48, Ice Warning, 29.8, , 31, 32, 95, 0, , , 98, 1, 77, , None, None, ,  
01/20/2019 04:42, Ice Warning, 30, , 31, 32, 95, 0, , , 98, 1, 76, , None, None, ,  
01/20/2019 04:38, Ice Warning, 30.2, , 31, 32, 95, 0, , , 98, 1, 78, , None, None, ,  
01/20/2019 04:28, Ice Warning, 30.6, , 31, 32, 95, 0, , , 98, 1, 80, , None, None, ,  
01/20/2019 04:27, Ice Warning, 30.6, , 31, 32, 95, 0, , , 98, 1, 80, , None, None, ,  
01/20/2019 04:18, Ice Warning, 30.7, , 31, 32, 95, 0, , , 97, 1, 79, , None, None, ,  
01/20/2019 04:12, Ice Warning, 30.9, , 31, 32, 95, 0, , , 97, 1, 79, , None, None, ,  
01/20/2019 04:08, Ice Warning, 31.1, , 31, 32, 95, 0, , , 97, 1, 78, , None, None, ,  
01/20/2019 03:58, Ice Warning, 31.1, , 31, 32, 95, 0, , , 96, 1, 77, , None, None, ,  
01/20/2019 03:57, Ice Warning, 31.1, , 31, 32, 95, 0, , , 96, 1, 77, , None, None, ,  
01/20/2019 03:48, Ice Warning, 31.3, , 31, 32, 95, 0, , , 96, 1, 71, , None, None, ,  
01/20/2019 03:42, Ice Warning, 31.3, , 31, 32, 95, 0, , , 95, 1, 85, , None, None, ,  
01/20/2019 03:38, Ice Warning, 31.3, , 31, 32, 95, 0, , , 95, 1, 85, , None, None, ,  
01/20/2019 03:28, Ice Warning, 31.3, , 31, 32, 95, 0, , , 95, 1, 84, , None, None, ,  
01/20/2019 03:27, Ice Warning, 31.5, , 31, 32, 95, 0, , , 94, 1, 83, , None, None, ,  
01/20/2019 03:18, Ice Warning, 31.5, , 31, 32, 95, 0, , , 94, 1, 79, , None, None, ,  
01/20/2019 03:12, Ice Warning, 31.5, , 31, 32, 95, 0, , , 94, 1, 77, , None, None, ,  
01/20/2019 03:08, Ice Warning, 31.5, , 31, 32, 95, 0, , , 94, 1, 76, , None, None, ,  
01/20/2019 02:58, Ice Warning, 31.5, , 31, 32, 95, 0, , , 94, 1, 75, , None, None, ,  
01/20/2019 02:57, Ice Warning, 31.5, , 31, 32, 95, 0, , , 94, 1, 75, , None, None, ,  
01/20/2019 02:48, Ice Warning, 31.3, , 31, 32, 95, 0, , , 95, 1, 79, , None, None, ,  
01/20/2019 02:42, Ice Warning, 31.5, , 31, 32, 95, 0, , , 94, 1, 79, , Yes, , ,  
01/20/2019 02:38, Ice Warning, 31.3, , 31, 32, 95, 0, , , 95, 1, 81, , None, None, ,  
01/20/2019 02:28, Ice Warning, 31.5, , 31, 32, 95, 0, , , 93, 1, 83, , Yes, , ,  
01/20/2019 02:27, Ice Warning, 31.5, , 31, 32, 95, 0, , , 93, 1, 83, , None, None, ,  
01/20/2019 02:18, Ice Warning, 31.5, , 31, 32, 95, 0, , , 93, 1, 85, , None, None, ,  
01/20/2019 02:12, Ice Warning, 31.3, , 31, 32, 95, 0, , , 95, 1, 86, , Yes, , ,  
01/20/2019 02:08, Ice Warning, 31.5, , 31, 32, 95, 0, , , 93, 1, 85, , None, None, ,  
01/20/2019 01:58, Ice Warning, 31.5, , 31, 32, 95, 0, , , 93, 1, 89, , None, None, ,  
01/20/2019 01:57, Ice Warning, 31.5, , 31, 32, 95, 0, , , 93, 1, 89, , None, None, ,  
01/20/2019 01:48, Ice Warning, 31.5, , 31, 32, 95, 0, , , 94, 1, 79, , Yes, , ,  
01/20/2019 01:42, Ice Warning, 31.5, , 31, 32, 95, 0, , , 95, 1, 67, , Yes, , ,  
01/20/2019 01:38, Ice Warning, 31.5, , 31, 32, 95, 0, , , 97, 0, 44, , Yes, , ,  
01/20/2019 01:28, Ice Warning, 31.5, , 31, 32, 95, 0, , , 97, 0, 44, , Yes, , ,  
01/20/2019 01:27, Ice Warning, 31.5, , 31, 32, 95, 0, , , 97, 0, 44, , Yes, , ,  
01/20/2019 01:17, Ice Warning, 31.5, , 31, 32, 95, 0, , , 96, 0, 47, , Yes, , ,  
01/20/2019 01:12, Ice Warning, 31.5, , 31, 32, 95, 0, , , 96, 0, 47, , Yes, , ,  
01/20/2019 01:07, Ice Warning, 31.5, , 31, 32, 95, 0, , , 96, 0, 47, , Yes, , ,  
01/20/2019 00:57, Ice Warning, 31.5, , 31, 32, 95, 0, , , 97, 0, 42, , Yes, , ,  
01/20/2019 00:57, Ice Warning, 31.5, , 31, 32, 95, 0, , , 97, 0, 42, , Yes, , ,  
01/20/2019 00:47, Ice Warning, 31.5, , 31, 32, 95, 0, , , 97, 0, 44, , Yes, , ,  
01/20/2019 00:42, Ice Warning, 31.5, , 31, 32, 95, 0, , , 95, 1, 63, , Yes, , ,  
01/20/2019 00:37, Ice Warning, 31.5, , 31, 32, 95, 0, , , 95, 1, 63, , Yes, , ,  
01/20/2019 00:27, Ice Warning, 31.5, , 31, 32, 95, 0, , , 95, 1, 58, , Yes, , ,  
01/20/2019 00:27, Ice Warning, 31.5, , 31, 32, 95, 0, , , 95, 1, 58, , Yes, , ,  
01/20/2019 00:17, Ice Warning, 31.6, , 32, 32, 95, 0, , , 95, 0, 42, , Yes, , ,  
01/20/2019 00:12, Ice Warning, 31.6, , 32, 32, 95, 0, , , 92, 1, 69, , Yes, , ,  
01/20/2019 00:07, Chemically Wet, 31.6, , 32, 32, 95, 1, , , 75, 2, 223, , Yes, , ,  
01/19/2019 23:57, Chemically Wet, 31.6, , 32, 32, 90, 1, , , 56, 4, 403, , None, None, ,  
01/19/2019 23:57, Chemically Wet, 31.6, , 32, 32, 90, 1, , , 56, 4, 403, , None, None, ,  
01/19/2019 23:47, Chemically Wet, 31.6, , 32, 32, 95, 1, , , 60, 4, 364, , None, None, ,  
01/19/2019 23:42, Chemically Wet, 31.6, , 32, 32, 95, 1, , , 64, 3, 331, , None, None, ,  
01/19/2019 23:37, Chemically Wet, 31.6, , 32, 32, 95, 1, , , 68, 3, 290, , None, None, ,  
01/19/2019 23:27, Chemically Wet, 31.6, , 32, 32, 95, 1, , , 77, 2, 210, , Yes, , ,  
01/19/2019 23:27, Chemically Wet, 31.6, , 32, 32, 95, 1, , , 77, 2, 210, , Yes, , ,  
01/19/2019 23:17, Ice Warning, 31.6, , 32, 32, 90, 0, , , 90, 1, 92, , None, None, ,  
01/19/2019 23:12, Ice Warning, 31.6, , 32, 32, 90, 0, , , 92, 1, 72, , None, None, ,  
Change End Date:

Copyright © 1998-2015 Vaisala, Inc.
All Rights Reserved
Send comments about the data to:
SCAN Web ® is a registered trademark of Vaisala, Inc.
SCAN Web Version 6.0